Time;durP1;ratioP1;P1;durP2;ratioP2;P2;SDS_P1;SDS_P2;PMS_P1;PMS_P2;Temp;Humidity;BMP_temperature;BMP_pressure;BME280_temperature;BME280_humidity;BME280_pressure;Samples;Min_cycle;Max_cycle;Signal;HPM_P1;HPM_P2
2021/10/19 00:00:16;;;;;;;13.63;11.17;;;10.20;99.90;;;;;;5074585;28;20449;-83
2021/10/19 00:02:43;;;;;;;13.43;10.47;;;;;;;;;;5072838;28;20486;-82
2021/10/19 00:05:11;;;;;;;12.20;10.30;;;10.50;99.90;;;;;;5075015;28;20446;-80
2021/10/19 00:07:39;;;;;;;14.00;10.77;;;;;;;;;;5075066;28;20470;-81
2021/10/19 00:10:09;;;;;;;13.73;8.73;;;10.40;99.90;;;;;;5075812;28;20468;-83
2021/10/19 00:12:36;;;;;;;14.43;10.80;;;;;;;;;;5076007;28;20448;-82
2021/10/19 00:15:03;;;;;;;17.00;10.87;;;;;;;;;;5075559;28;20461;-80
2021/10/19 00:17:30;;;;;;;12.93;10.60;;;;;;;;;;5074793;28;20465;-80
2021/10/19 00:19:56;;;;;;;12.97;9.97;;;10.50;99.90;;;;;;5075263;28;20424;-81
2021/10/19 00:22:23;;;;;;;13.03;10.77;;;;;;;;;;5075645;28;20417;-81
2021/10/19 00:24:50;;;;;;;12.73;10.90;;;10.20;99.90;;;;;;5078614;28;20442;-82
2021/10/19 00:27:18;;;;;;;13.20;10.60;;;10.50;99.90;;;;;;5070056;28;20456;-80
2021/10/19 00:29:45;;;;;;;11.27;10.17;;;;;;;;;;5073738;28;20527;-80
2021/10/19 00:32:12;;;;;;;17.37;11.50;;;;;;;;;;5075320;28;20456;-81
2021/10/19 00:34:39;;;;;;;16.30;12.27;;;;;;;;;;5074433;28;20435;-80
2021/10/19 00:37:06;;;;;;;15.93;10.87;;;;;;;;;;5073780;28;20470;-83
2021/10/19 00:39:33;;;;;;;14.33;10.60;;;;;;;;;;5074270;28;20896;-82
2021/10/19 00:42:00;;;;;;;12.90;11.00;;;;;;;;;;5070406;28;20421;-84
2021/10/19 00:44:28;;;;;;;13.37;11.30;;;10.50;99.90;;;;;;5071865;28;20975;-83
2021/10/19 00:46:57;;;;;;;13.90;11.30;;;10.80;99.90;;;;;;5074623;28;20442;-81
2021/10/19 00:49:24;;;;;;;13.70;11.13;;;;;;;;;;5074341;28;20472;-81
2021/10/19 00:51:51;;;;;;;14.40;12.07;;;;;;;;;;5074309;28;20465;-81
2021/10/19 00:54:18;;;;;;;15.87;11.73;;;;;;;;;;5072876;28;20472;-82
2021/10/19 00:56:45;;;;;;;16.03;11.83;;;;;;;;;;5072348;28;20480;-82
2021/10/19 00:59:15;;;;;;;16.37;11.90;;;10.40;99.90;;;;;;5072935;28;20443;-80
2021/10/19 01:01:43;;;;;;;25.67;11.97;;;10.30;99.90;;;;;;5073630;28;20425;-80
2021/10/19 01:04:10;;;;;;;15.83;11.30;;;;;;;;;;5074485;28;20434;-80
2021/10/19 01:06:37;;;;;;;16.47;13.13;;;;;;;;;;5073936;28;20446;-79
2021/10/19 01:09:05;;;;;;;15.70;11.80;;;;;;;;;;5073626;28;20451;-79
2021/10/19 01:11:32;;;;;;;16.73;13.10;;;;;;;;;;5076762;28;20429;-79
2021/10/19 01:13:58;;;;;;;15.60;12.27;;;;;;;;;;5078504;28;20503;-80
2021/10/19 01:16:26;;;;;;;16.23;12.60;;;;;;;;;;5075901;28;20437;-81
2021/10/19 01:18:54;;;;;;;16.70;12.47;;;10.10;99.90;;;;;;5075726;28;20449;-80
2021/10/19 01:21:22;;;;;;;19.00;13.00;;;10.00;99.90;;;;;;5078163;28;20415;-80
2021/10/19 01:23:49;;;;;;;14.13;12.50;;;;;;;;;;5077636;28;20501;-81
2021/10/19 01:26:16;;;;;;;17.30;12.30;;;;;;;;;;5074952;28;20441;-81
2021/10/19 01:28:43;;;;;;;18.57;13.87;;;;;;;;;;5074814;28;20545;-81
2021/10/19 01:31:11;;;;;;;17.00;12.63;;;;;;;;;;5075848;28;20424;-82
2021/10/19 01:33:39;;;;;;;16.93;13.03;;;;;;;;;;5077256;28;20976;-80
2021/10/19 01:36:06;;;;;;;17.73;12.07;;;;;;;;;;5077236;28;20406;-80
2021/10/19 01:38:35;;;;;;;16.97;12.77;;;10.10;99.90;;;;;;5075810;28;20457;-81
2021/10/19 01:41:03;;;;;;;14.27;11.30;;;10.10;99.90;;;;;;5069939;28;20501;-80
2021/10/19 01:43:30;;;;;;;16.23;12.10;;;10.00;99.90;;;;;;5069355;28;20944;-81
2021/10/19 01:45:58;;;;;;;15.10;13.10;;;9.90;99.90;;;;;;5071623;28;20440;-81
2021/10/19 01:48:25;;;;;;;19.93;15.13;;;;;;;;;;5070497;28;20855;-81
2021/10/19 01:50:52;;;;;;;18.23;13.50;;;;;;;;;;5074103;28;20447;-79
2021/10/19 01:53:20;;;;;;;17.07;13.90;;;9.90;99.90;;;;;;5074603;28;20421;-81
2021/10/19 01:55:49;;;;;;;16.67;13.50;;;9.90;99.90;;;;;;5073852;28;20587;-80
2021/10/19 01:58:21;;;;;;;18.60;13.20;;;;;;;;;;5075700;28;20425;-81
2021/10/19 02:00:48;;;;;;;16.90;13.40;;;;;;;;;;5076001;28;20406;-82
2021/10/19 02:03:15;;;;;;;15.90;13.80;;;;;;;;;;5074116;28;20474;-82
2021/10/19 02:05:42;;;;;;;17.23;13.37;;;;;;;;;;5075274;28;20446;-82
2021/10/19 02:08:09;;;;;;;17.87;13.87;;;;;;;;;;5074999;28;20466;-82
2021/10/19 02:10:36;;;;;;;20.77;13.97;;;;;;;;;;5074879;28;20479;-82
2021/10/19 02:13:06;;;;;;;17.73;12.70;;;10.10;99.90;;;;;;5075561;28;20400;-82
2021/10/19 02:15:33;;;;;;;18.00;14.00;;;;;;;;;;5074117;28;20442;-81
2021/10/19 02:18:00;;;;;;;17.70;13.87;;;;;;;;;;5074469;28;20485;-81
2021/10/19 02:20:28;;;;;;;17.30;12.50;;;10.00;99.90;;;;;;5076291;28;20449;-82
2021/10/19 02:22:55;;;;;;;15.60;13.17;;;10.10;99.90;;;;;;5075428;28;20424;-81
2021/10/19 02:25:22;;;;;;;17.60;13.63;;;;;;;;;;5075779;28;20457;-81
2021/10/19 02:27:49;;;;;;;17.60;13.60;;;;;;;;;;5076122;28;20444;-79
2021/10/19 02:30:18;;;;;;;17.07;13.17;;;9.80;99.90;;;;;;5075895;28;20457;-81
2021/10/19 02:32:45;;;;;;;16.33;14.17;;;10.20;99.90;;;;;;5074133;28;20420;-80
2021/10/19 02:35:14;;;;;;;21.83;13.93;;;10.00;99.90;;;;;;5073414;28;20445;-82
2021/10/19 02:37:42;;;;;;;18.10;14.00;;;10.00;99.90;;;;;;5076811;28;20466;-82
2021/10/19 02:40:11;;;;;;;20.33;16.27;;;10.10;99.90;;;;;;5073936;28;20397;-82
2021/10/19 02:42:38;;;;;;;19.37;13.90;;;;;;;;;;5075225;28;20446;-81
2021/10/19 02:45:06;;;;;;;20.20;14.20;;;9.90;99.90;;;;;;5076152;28;20428;-83
2021/10/19 02:47:34;;;;;;;18.23;14.17;;;9.80;99.90;;;;;;5075821;28;20466;-82
2021/10/19 02:50:01;;;;;;;19.63;14.50;;;;;;;;;;5070429;28;20482;-82
2021/10/19 02:52:28;;;;;;;20.23;14.63;;;;;;;;;;5070653;28;20421;-82
2021/10/19 02:54:55;;;;;;;22.63;16.10;;;;;;;;;;5069550;28;20447;-82
2021/10/19 02:57:23;;;;;;;17.37;14.27;;;;;;;;;;5070573;28;20465;-82
2021/10/19 02:59:50;;;;;;;18.33;14.93;;;;;;;;;;5063028;28;20938;-82
2021/10/19 03:02:17;;;;;;;21.07;15.00;;;9.70;99.90;;;;;;5068777;28;20476;-82
2021/10/19 03:04:45;;;;;;;19.90;14.30;;;9.90;99.90;;;;;;5061944;28;20442;-83
2021/10/19 03:07:12;;;;;;;20.27;14.47;;;;;;;;;;5070559;28;20510;-80
2021/10/19 03:09:39;;;;;;;20.03;14.70;;;;;;;;;;5072963;28;20553;-82
2021/10/19 03:12:06;;;;;;;23.10;15.67;;;;;;;;;;5072226;28;20413;-82
2021/10/19 03:14:33;;;;;;;20.20;16.00;;;;;;;;;;5074140;28;20439;-81
2021/10/19 03:17:00;;;;;;;19.33;14.70;;;;;;;;;;5076738;28;20224;-81
2021/10/19 03:19:27;;;;;;;16.97;13.73;;;;;;;;;;5066527;28;20444;-83
2021/10/19 03:21:55;;;;;;;19.27;14.90;;;9.80;99.90;;;;;;5069179;28;20466;-81
2021/10/19 03:24:22;;;;;;;16.70;13.77;;;;;;;;;;5079772;28;20480;-82
2021/10/19 03:26:49;;;;;;;59.17;27.60;;;;;;;;;;5122841;22;20448;-85
2021/10/19 03:29:17;;;;;;;17.43;13.10;;;;;;;;;;5073705;28;20489;-86
2021/10/19 03:31:44;;;;;;;17.53;13.90;;;;;;;;;;5065190;28;20525;-87
2021/10/19 03:34:11;;;;;;;20.50;15.53;;;;;;;;;;5063798;28;20766;-86
2021/10/19 03:36:38;;;;;;;19.73;14.63;;;;;;;;;;5063381;28;20446;-85
2021/10/19 03:39:06;;;;;;;21.30;15.97;;;9.90;99.90;;;;;;5075467;28;20456;-85
2021/10/19 03:41:33;;;;;;;23.87;16.20;;;;;;;;;;5078789;28;20454;-85
2021/10/19 03:44:00;;;;;;;20.33;15.20;;;;;;;;;;5076027;28;20438;-86
2021/10/19 03:46:27;;;;;;;20.20;14.80;;;;;;;;;;5072172;28;20500;-86
2021/10/19 03:48:54;;;;;;;32.63;19.60;;;;;;;;;;5126003;22;20409;-85
2021/10/19 03:51:21;;;;;;;20.20;14.30;;;;;;;;;;5045979;28;20434;-85
2021/10/19 03:53:48;;;;;;;24.30;15.40;;;;;;;;;;5045335;28;20451;-86
2021/10/19 03:56:16;;;;;;;22.17;15.70;;;9.80;99.90;;;;;;5045530;28;20441;-86
2021/10/19 03:58:43;;;;;;;20.63;15.50;;;;;;;;;;5044582;28;20459;-87
2021/10/19 04:01:10;;;;;;;19.97;14.90;;;;;;;;;;5042310;28;20446;-87
2021/10/19 04:06:05;;;;;;;22.13;16.17;;;;;;;;;;5037838;28;20442;-83
2021/10/19 04:08:32;;;;;;;21.57;15.60;;;;;;;;;;5043525;28;20440;-83
2021/10/19 04:10:59;;;;;;;25.43;16.77;;;;;;;;;;5047891;28;20457;-83
2021/10/19 04:13:27;;;;;;;21.47;16.10;;;9.80;99.90;;;;;;5040049;28;20479;-83
2021/10/19 04:15:54;;;;;;;19.87;15.43;;;;;;;;;;5038725;28;20479;-83
2021/10/19 04:18:21;;;;;;;21.97;15.33;;;;;;;;;;5046374;28;20451;-81
2021/10/19 04:20:48;;;;;;;21.90;16.37;;;;;;;;;;5051897;28;21001;-82
2021/10/19 04:23:15;;;;;;;19.87;15.93;;;;;;;;;;5054908;28;20406;-83
2021/10/19 04:25:42;;;;;;;25.73;17.90;;;;;;;;;;5056307;28;20430;-80
2021/10/19 04:28:09;;;;;;;23.53;17.27;;;;;;;;;;5058646;28;20427;-81
2021/10/19 04:30:38;;;;;;;22.40;17.90;;;9.70;99.90;;;;;;5058979;28;20441;-78
2021/10/19 04:33:05;;;;;;;23.37;16.80;;;;;;;;;;5058630;28;20482;-84
2021/10/19 04:35:32;;;;;;;22.43;17.70;;;;;;;;;;5058317;28;20467;-82
2021/10/19 04:37:59;;;;;;;22.17;15.70;;;;;;;;;;5059055;28;20431;-80
2021/10/19 04:40:26;;;;;;;27.00;17.20;;;;;;;;;;5057681;28;20439;-82
2021/10/19 04:42:53;;;;;;;19.43;15.23;;;;;;;;;;5051960;28;20438;-82
2021/10/19 04:45:21;;;;;;;19.60;15.93;;;;;;;;;;5049927;28;20550;-82
2021/10/19 04:47:49;;;;;;;22.50;16.20;;;9.80;99.90;;;;;;5043755;28;20450;-83
2021/10/19 04:50:16;;;;;;;26.57;18.17;;;;;;;;;;5043711;28;20454;-84
2021/10/19 04:52:44;;;;;;;20.50;15.97;;;;;;;;;;5043092;28;20443;-83
2021/10/19 04:55:11;;;;;;;24.03;17.40;;;;;;;;;;5041266;28;20473;-83
2021/10/19 04:57:38;;;;;;;24.20;16.10;;;;;;;;;;5046072;28;20525;-83
2021/10/19 05:00:06;;;;;;;22.60;16.83;;;9.70;99.90;;;;;;5046350;28;20447;-83
2021/10/19 05:02:33;;;;;;;24.30;17.73;;;;;;;;;;5050181;28;20451;-83
2021/10/19 05:05:00;;;;;;;21.37;15.67;;;9.70;99.90;;;;;;5046262;28;20551;-83
2021/10/19 05:07:27;;;;;;;26.97;18.90;;;9.40;99.90;;;;;;5043093;28;20497;-82
2021/10/19 05:09:54;;;;;;;26.87;17.43;;;;;;;;;;5041946;28;20479;-82
2021/10/19 05:12:22;;;;;;;22.90;16.40;;;9.50;99.90;;;;;;5038228;28;20818;-83
2021/10/19 05:14:49;;;;;;;22.70;15.73;;;;;;;;;;5043074;28;20482;-82
2021/10/19 05:17:16;;;;;;;23.60;16.77;;;10.10;99.90;;;;;;5056204;28;20447;-81
2021/10/19 05:19:43;;;;;;;22.07;17.47;;;;;;;;;;5039804;28;20472;-81
2021/10/19 05:22:10;;;;;;;25.90;17.30;;;9.70;99.90;;;;;;5038357;28;20470;-81
2021/10/19 05:24:38;;;;;;;21.70;17.00;;;;;;;;;;5038116;28;20475;-83
2021/10/19 05:27:05;;;;;;;22.00;16.37;;;;;;;;;;5038940;28;20453;-81
2021/10/19 05:29:32;;;;;;;21.50;15.83;;;;;;;;;;5038827;28;20460;-83
2021/10/19 05:31:59;;;;;;;25.27;17.23;;;;;;;;;;5038775;28;20414;-83
2021/10/19 05:34:26;;;;;;;31.43;20.40;;;;;;;;;;5040145;28;20449;-83
2021/10/19 05:36:53;;;;;;;25.63;18.50;;;;;;;;;;5040650;28;20451;-83
2021/10/19 05:39:21;;;;;;;23.43;18.10;;;9.70;99.90;;;;;;5045978;28;20418;-82
2021/10/19 05:41:48;;;;;;;23.83;15.90;;;;;;;;;;5053333;28;20418;-84
2021/10/19 05:44:15;;;;;;;26.20;18.33;;;;;;;;;;5040375;28;20529;-84
2021/10/19 05:46:44;;;;;;;26.43;18.37;;;;;;;;;;5050317;28;20413;-83
2021/10/19 05:49:11;;;;;;;26.37;17.27;;;;;;;;;;5055374;28;20421;-82
2021/10/19 05:51:38;;;;;;;28.43;18.90;;;;;;;;;;5057187;28;20446;-82
2021/10/19 05:54:04;;;;;;;24.60;17.90;;;;;;;;;;5059630;28;20438;-82
2021/10/19 05:56:32;;;;;;;23.37;16.60;;;9.70;99.90;;;;;;5058758;28;20422;-82
2021/10/19 05:58:59;;;;;;;25.70;17.30;;;;;;;;;;5057497;28;20482;-83
2021/10/19 06:01:26;;;;;;;20.57;15.73;;;10.00;99.90;;;;;;5057157;28;20470;-81
2021/10/19 06:03:53;;;;;;;24.30;17.10;;;;;;;;;;5054784;28;20406;-83
2021/10/19 06:06:20;;;;;;;20.80;16.83;;;;;;;;;;5047398;28;20426;-82
2021/10/19 06:08:51;;;;;;;28.73;18.70;;;;;;;;;;5043683;28;20476;-83
2021/10/19 06:11:18;;;;;;;27.10;17.23;;;;;;;;;;5043603;28;20467;-82
2021/10/19 06:13:46;;;;;;;30.60;19.83;;;9.90;99.90;;;;;;5043977;28;20451;-83
2021/10/19 06:16:13;;;;;;;22.40;17.37;;;;;;;;;;5043108;28;20477;-83
2021/10/19 06:18:40;;;;;;;26.67;17.47;;;;;;;;;;5044366;28;20430;-83
2021/10/19 06:21:07;;;;;;;24.63;16.60;;;;;;;;;;5043500;28;20443;-83
2021/10/19 06:23:34;;;;;;;23.13;17.33;;;;;;;;;;5043787;28;20454;-83
2021/10/19 06:26:01;;;;;;;25.50;17.40;;;;;;;;;;5044837;28;20451;-82
2021/10/19 06:28:28;;;;;;;32.97;18.97;;;;;;;;;;5056755;28;20444;-81
2021/10/19 06:30:56;;;;;;;29.77;17.40;;;10.00;99.90;;;;;;5055998;28;20498;-82
2021/10/19 06:33:23;;;;;;;25.33;16.97;;;;;;;;;;5053482;28;20439;-82
2021/10/19 06:35:50;;;;;;;26.30;17.27;;;;;;;;;;5049511;28;20519;-82
2021/10/19 06:38:19;;;;;;;22.10;16.93;;;;;;;;;;5047905;28;20421;-82
2021/10/19 06:40:46;;;;;;;23.67;17.73;;;;;;;;;;5043013;28;20424;-83
2021/10/19 06:43:14;;;;;;;21.97;15.40;;;;;;;;;;5042196;28;20454;-82
2021/10/19 06:45:41;;;;;;;26.23;17.77;;;;;;;;;;5042531;28;21047;-82
2021/10/19 06:48:09;;;;;;;20.47;15.53;;;10.20;99.90;;;;;;5042453;28;20425;-82
2021/10/19 06:50:37;;;;;;;23.17;16.30;;;;;;;;;;5042264;28;20826;-83
2021/10/19 06:53:04;;;;;;;26.90;16.57;;;;;;;;;;5041295;28;20451;-84
2021/10/19 06:55:31;;;;;;;20.90;15.97;;;;;;;;;;5041440;28;20500;-83
2021/10/19 06:57:58;;;;;;;20.47;16.10;;;10.10;99.90;;;;;;5043307;28;20421;-83
2021/10/19 07:00:25;;;;;;;27.50;17.23;;;;;;;;;;5043956;28;20451;-84
2021/10/19 07:02:52;;;;;;;22.20;16.27;;;;;;;;;;5041210;28;20566;-84
2021/10/19 07:05:20;;;;;;;22.77;17.67;;;10.40;99.90;;;;;;5041919;28;20446;-82
2021/10/19 07:07:47;;;;;;;26.97;17.60;;;;;;;;;;5042132;28;20430;-82
2021/10/19 07:10:16;;;;;;;26.33;17.03;;;10.50;99.90;;;;;;5045215;28;20483;-83
2021/10/19 07:12:43;;;;;;;24.73;18.43;;;;;;;;;;5047583;28;20808;-83
2021/10/19 07:15:11;;;;;;;29.77;19.80;;;10.40;99.90;;;;;;5043044;28;20766;-83
2021/10/19 07:17:38;;;;;;;24.67;19.20;;;;;;;;;;5042373;28;20443;-83
2021/10/19 07:20:06;;;;;;;29.53;19.03;;;10.50;99.90;;;;;;5051091;28;20421;-83
2021/10/19 07:22:34;;;;;;;28.57;18.83;;;10.60;99.90;;;;;;5051080;28;20456;-83
2021/10/19 07:25:03;;;;;;;26.70;18.80;;;;;;;;;;5044233;28;20464;-84
2021/10/19 07:27:30;;;;;;;23.67;18.63;;;10.50;99.90;;;;;;5042069;28;20554;-84
2021/10/19 07:29:57;;;;;;;27.90;16.93;;;;;;;;;;5041284;28;20425;-84
2021/10/19 07:32:24;;;;;;;29.53;18.50;;;;;;;;;;5041148;28;20458;-80
2021/10/19 07:34:51;;;;;;;24.93;19.60;;;;;;;;;;5045165;28;20449;-83
2021/10/19 07:37:18;;;;;;;23.40;15.87;;;;;;;;;;5053088;28;20455;-83
2021/10/19 07:39:46;;;;;;;24.03;17.93;;;10.80;99.90;;;;;;5054836;28;20442;-82
2021/10/19 07:42:15;;;;;;;24.60;17.27;;;;;;;;;;5053886;28;20475;-81
2021/10/19 07:44:43;;;;;;;29.60;20.20;;;;;;;;;;5049737;28;20466;-83
2021/10/19 07:47:10;;;;;;;22.70;16.47;;;;;;;;;;5057413;28;20454;-84
2021/10/19 07:49:37;;;;;;;22.67;17.33;;;;;;;;;;5054462;28;20451;-83
2021/10/19 07:52:04;;;;;;;26.90;17.03;;;;;;;;;;5046106;28;20540;-81
2021/10/19 07:54:31;;;;;;;22.00;16.37;;;;;;;;;;5056519;28;20442;-82
2021/10/19 07:56:59;;;;;;;20.77;14.87;;;11.20;99.90;;;;;;5057971;28;20417;-81
2021/10/19 07:59:26;;;;;;;20.50;16.00;;;;;;;;;;5053695;28;20418;-83
2021/10/19 08:01:53;;;;;;;26.90;18.60;;;;;;;;;;5053954;28;20436;-82
2021/10/19 08:04:20;;;;;;;24.87;17.57;;;;;;;;;;5053322;28;20471;-82
2021/10/19 08:06:47;;;;;;;23.33;17.03;;;;;;;;;;5045281;28;20447;-84
2021/10/19 08:09:13;;;;;;;21.40;16.07;;;;;;;;;;5044380;28;20421;-84
2021/10/19 08:11:40;;;;;;;23.07;17.87;;;;;;;;;;5043674;28;20461;-83
2021/10/19 08:14:09;;;;;;;24.77;17.13;;;11.30;99.90;;;;;;5043875;28;20902;-82
2021/10/19 08:16:35;;;;;;;22.03;16.90;;;;;;;;;;5043398;28;20482;-82
2021/10/19 08:19:02;;;;;;;22.90;16.53;;;;;;;;;;5042931;28;20451;-82
2021/10/19 08:21:31;;;;;;;26.50;17.50;;;11.40;99.90;;;;;;5042729;28;20512;-82
2021/10/19 08:23:58;;;;;;;24.87;15.70;;;;;;;;;;5042900;28;20497;-84
2021/10/19 08:26:29;;;;;;;27.60;18.00;;;11.50;99.90;;;;;;5052298;28;20414;-83
2021/10/19 08:28:56;;;;;;;21.57;16.30;;;;;;;;;;5054133;28;20441;-81
2021/10/19 08:31:24;;;;;;;22.43;15.67;;;11.70;99.90;;;;;;5050707;28;20493;-83
2021/10/19 08:33:52;;;;;;;28.20;15.87;;;;;;;;;;5043249;28;20447;-83
2021/10/19 08:36:19;;;;;;;21.30;16.63;;;;;;;;;;5044571;28;20546;-82
2021/10/19 08:38:48;;;;;;;23.47;15.90;;;;;;;;;;5053635;28;20443;-82
2021/10/19 08:41:15;;;;;;;29.77;17.07;;;;;;;;;;5057437;28;20440;-81
2021/10/19 08:43:42;;;;;;;21.83;16.37;;;12.80;99.90;;;;;;5055949;28;20418;-82
2021/10/19 08:46:10;;;;;;;25.03;16.20;;;12.70;99.90;;;;;;5051743;28;20499;-84
2021/10/19 08:48:38;;;;;;;21.97;16.57;;;12.40;99.90;;;;;;5050074;28;20443;-83
2021/10/19 08:51:05;;;;;;;19.70;14.80;;;;;;;;;;5050434;28;20479;-84
2021/10/19 08:53:32;;;;;;;21.57;16.80;;;;;;;;;;5051756;28;20443;-80
2021/10/19 08:55:59;;;;;;;20.67;16.83;;;;;;;;;;5048670;28;20467;-82
2021/10/19 08:58:26;;;;;;;21.73;14.50;;;;;;;;;;5049232;28;20456;-83
2021/10/19 09:01:03;;;;;;;26.70;16.77;;;12.40;99.90;;;;;;5050884;28;20418;-81
2021/10/19 09:03:30;;;;;;;23.07;15.13;;;;;;;;;;5045696;28;20431;-83
2021/10/19 09:05:58;;;;;;;21.63;15.50;;;12.50;99.90;;;;;;5047220;28;20475;-83
2021/10/19 09:08:25;;;;;;;24.83;14.90;;;13.00;99.90;;;;;;5046879;28;20443;-83
2021/10/19 09:10:53;;;;;;;18.67;13.83;;;;;;;;;;5042353;28;20478;-83
2021/10/19 09:13:20;;;;;;;18.90;15.07;;;12.80;99.90;;;;;;5040813;28;20443;-84
2021/10/19 09:15:49;;;;;;;21.10;14.33;;;13.10;99.90;;;;;;5039280;28;20463;-84
2021/10/19 09:18:18;;;;;;;21.17;14.87;;;12.90;99.90;;;;;;5039565;28;20422;-83
2021/10/19 09:20:47;;;;;;;17.60;14.33;;;13.60;99.90;;;;;;5040594;28;20435;-83
2021/10/19 09:23:18;;;;;;;21.93;14.20;;;13.10;99.90;;;;;;5039481;28;20474;-83
2021/10/19 09:25:47;;;;;;;24.67;14.17;;;13.10;99.90;;;;;;5039208;28;20471;-83
2021/10/19 09:28:15;;;;;;;18.77;14.17;;;13.10;99.90;;;;;;5039815;28;20497;-83
2021/10/19 09:30:44;;;;;;;17.70;12.93;;;13.10;99.90;;;;;;5039689;28;20512;-83
2021/10/19 09:33:14;;;;;;;18.63;14.80;;;13.10;99.90;;;;;;5052653;28;20479;-81
2021/10/19 09:35:42;;;;;;;15.70;12.57;;;;;;;;;;5057661;28;20458;-82
2021/10/19 09:38:11;;;;;;;20.93;13.93;;;13.10;99.90;;;;;;5057456;28;20433;-82
2021/10/19 09:40:42;;;;;;;22.13;13.83;;;13.10;99.90;;;;;;5058030;28;20448;-80
2021/10/19 09:43:11;;;;;;;23.90;14.77;;;13.10;99.90;;;;;;5057746;28;20450;-81
2021/10/19 09:45:40;;;;;;;18.93;14.90;;;13.20;99.90;;;;;;5057774;28;20459;-82
2021/10/19 09:48:12;;;;;;;16.97;13.23;;;13.30;99.90;;;;;;5043836;28;20847;-84
2021/10/19 09:50:39;;;;;;;23.10;16.33;;;;;;;;;;5043631;28;20442;-83
2021/10/19 09:53:06;;;;;;;26.40;15.77;;;;;;;;;;5038804;28;20447;-83
2021/10/19 09:55:34;;;;;;;20.33;15.90;;;13.30;99.90;;;;;;5043211;28;20491;-80
2021/10/19 09:58:02;;;;;;;20.20;14.63;;;13.40;99.90;;;;;;5054522;28;20517;-82
2021/10/19 10:00:32;;;;;;;18.13;12.93;;;;;;;;;;5050942;28;20447;-82
2021/10/19 10:03:00;;;;;;;15.83;11.77;;;;;;;;;;5056162;28;20425;-80
2021/10/19 10:05:27;;;;;;;14.97;12.57;;;;;;;;;;5102778;22;20475;-86
2021/10/19 10:07:59;;;;;;;21.73;14.57;;;;;;;;;;5063210;28;20496;-86
2021/10/19 10:10:27;;;;;;;17.50;13.13;;;13.70;99.90;;;;;;5065965;28;20430;-85
2021/10/19 10:13:00;;;;;;;18.83;13.87;;;;;;;;;;5064088;28;20821;-86
2021/10/19 10:15:32;;;;;;;16.17;11.70;;;13.80;99.90;;;;;;5063157;28;20464;-86
2021/10/19 10:18:03;;;;;;;22.83;14.30;;;13.90;99.90;;;;;;5062163;28;20437;-86
2021/10/19 10:20:38;;;;;;;15.20;12.10;;;14.00;99.90;;;;;;5060345;28;20931;-87
2021/10/19 10:23:15;;;;;;;16.47;12.40;;;;;;;;;;5060524;28;20442;-86
2021/10/19 10:25:43;;;;;;;19.05;14.85;;;;;;;;;;5061474;28;20514;-86
2021/10/19 10:28:36;;;;;;;15.93;12.73;;;;;;;;;;5064906;28;20283;-86
2021/10/19 10:31:07;;;;;;;16.03;12.37;;;14.30;99.90;;;;;;5061393;28;20462;-86
2021/10/19 10:33:37;;;;;;;17.60;11.97;;;14.30;99.90;;;;;;5061226;28;20431;-86
2021/10/19 10:36:06;;;;;;;19.37;12.67;;;;;;;;;;5060769;28;20477;-87
2021/10/19 10:38:33;;;;;;;14.30;12.70;;;;;;;;;;5062082;28;20469;-87
2021/10/19 10:41:13;;;;;;;18.73;12.37;;;14.30;99.90;;;;;;5063808;28;20446;-87
2021/10/19 10:43:40;;;;;;;29.97;13.37;;;;;;;;;;5061563;28;20442;-86
2021/10/19 10:46:14;;;;;;;17.10;12.70;;;;;;;;;;5062932;28;20555;-86
2021/10/19 10:48:45;;;;;;;20.03;13.80;;;;;;;;;;5065552;28;20461;-86
2021/10/19 10:51:16;;;;;;;17.70;13.23;;;;;;;;;;5064993;28;20465;-86
2021/10/19 10:53:44;;;;;;;13.30;11.20;;;;;;;;;;5067969;28;20474;-86
2021/10/19 10:56:18;;;;;;;13.70;10.00;;;;;;;;;;5068184;28;20462;-87
2021/10/19 10:58:51;;;;;;;14.63;11.53;;;;;;;;;;5079077;28;20514;-86
2021/10/19 11:01:22;;;;;;;19.47;12.60;;;14.60;99.90;;;;;;5078303;28;20442;-89
2021/10/19 11:03:50;;;;;;;16.00;13.37;;;;;;;;;;5080542;28;20435;-86
2021/10/19 11:06:19;;;;;;;21.80;14.40;;;14.70;99.90;;;;;;5070270;28;20477;-86
2021/10/19 11:08:47;;;;;;;16.48;12.55;;;14.80;99.90;;;;;;5061429;28;20447;-86
2021/10/19 11:11:16;;;;;;;13.57;12.07;;;14.90;99.90;;;;;;5064049;28;20223;-87
2021/10/19 11:13:49;;;;;;;15.53;12.07;;;14.90;99.90;;;;;;5063370;28;20446;-85
2021/10/19 11:16:16;;;;;;;12.83;11.50;;;;;;;;;;5064358;28;20469;-86
2021/10/19 11:18:45;;;;;;;18.27;10.93;;;;;;;;;;5065578;28;20450;-85
2021/10/19 11:21:12;;;;;;;12.67;10.50;;;;;;;;;;5063524;28;20502;-87
2021/10/19 11:23:39;;;;;;;13.57;12.07;;;;;;;;;;5064191;28;20806;-86
2021/10/19 11:26:07;;;;;;;12.53;10.67;;;;;;;;;;5062685;28;20987;-86
2021/10/19 11:28:36;;;;;;;14.70;9.90;;;15.40;99.90;;;;;;5062412;28;20446;-86
2021/10/19 11:31:03;;;;;;;13.00;10.30;;;;;;;;;;5062143;28;20454;-86
2021/10/19 11:33:29;;;;;;;11.77;9.90;;;;;;;;;;5061159;28;20443;-86
2021/10/19 11:35:58;;;;;;;11.47;9.77;;;;;;;;;;5062773;28;20455;-87
2021/10/19 11:38:27;;;;;;;11.73;10.17;;;;;;;;;;5068079;28;20473;-87
2021/10/19 11:40:54;;;;;;;11.67;10.40;;;;;;;;;;5072692;28;20450;-86
2021/10/19 11:43:21;;;;;;;13.50;10.37;;;;;;;;;;5064739;28;20450;-86
2021/10/19 11:45:48;;;;;;;10.00;8.60;;;;;;;;;;5064129;28;20516;-86
2021/10/19 11:48:15;;;;;;;10.57;9.10;;;;;;;;;;5066436;28;20495;-88
2021/10/19 11:51:07;;;;;;;10.37;8.70;;;15.80;99.90;;;;;;5067138;28;20477;-87
2021/10/19 11:53:36;;;;;;;11.23;9.57;;;15.70;99.90;;;;;;5061327;28;20451;-87
2021/10/19 11:56:04;;;;;;;12.43;8.83;;;15.90;99.90;;;;;;5066654;28;20957;-87
2021/10/19 11:58:33;;;;;;;12.67;8.80;;;;;;;;;;5064260;28;20962;-87
2021/10/19 12:01:03;;;;;;;10.67;9.43;;;;;;;;;;5065416;28;20584;-90
2021/10/19 12:03:56;;;;;;;10.53;8.90;;;;;;;;;;5066149;28;20442;-86
2021/10/19 12:06:28;;;;;;;13.50;10.37;;;;;;;;;;5069120;28;20478;-87
2021/10/19 12:08:55;;;;;;;12.83;8.40;;;;;;;;;;5065015;28;20450;-87
2021/10/19 12:11:41;;;;;;;11.73;8.87;;;16.00;99.90;;;;;;5063368;28;20446;-87
2021/10/19 12:14:21;;;;;;;14.27;9.57;;;;;;;;;;5064456;28;20499;-88
2021/10/19 12:16:55;;;;;;;10.03;9.00;;;;;;;;;;5063492;28;20450;-87
2021/10/19 12:19:31;;;;;;;10.00;8.73;;;;;;;;;;5064484;28;20426;-87
2021/10/19 12:22:09;;;;;;;16.37;9.83;;;16.00;99.90;;;;;;5064524;28;20462;-87
2021/10/19 12:24:38;;;;;;;10.77;9.57;;;;;;;;;;5066584;28;20462;-86
2021/10/19 12:27:15;;;;;;;11.70;8.80;;;;;;;;;;5066371;28;20833;-86
2021/10/19 12:29:48;;;;;;;13.00;10.30;;;;;;;;;;5059926;28;20838;-86
2021/10/19 12:32:18;;;;;;;9.60;8.60;;;;;;;;;;5061474;28;21092;-87
2021/10/19 12:34:52;;;;;;;12.43;10.47;;;;;;;;;;5061504;28;20478;-87
2021/10/19 12:37:32;;;;;;;9.67;8.70;;;;;;;;;;5063089;28;20406;-87
2021/10/19 12:39:59;;;;;;;11.20;9.40;;;;;;;;;;5063295;28;20476;-87
2021/10/19 12:42:31;;;;;;;11.20;9.47;;;;;;;;;;5063349;28;20441;-87
2021/10/19 12:44:58;;;;;;;9.67;8.67;;;;;;;;;;5060576;28;20516;-87
2021/10/19 12:47:33;;;;;;;10.53;8.00;;;;;;;;;;5061625;28;20445;-86
2021/10/19 12:50:03;;;;;;;8.50;7.60;;;;;;;;;;5061404;28;20977;-86
2021/10/19 12:52:36;;;;;;;9.60;6.93;;;;;;;;;;5062230;28;20470;-86
2021/10/19 12:55:03;;;;;;;8.30;7.50;;;;;;;;;;5063153;28;20474;-86
2021/10/19 12:57:33;;;;;;;8.13;7.00;;;;;;;;;;5064462;28;20529;-86
2021/10/19 13:00:00;;;;;;;10.10;8.30;;;;;;;;;;5065827;28;20568;-87
2021/10/19 13:02:30;;;;;;;9.10;7.73;;;;;;;;;;5076425;28;20461;-87
2021/10/19 13:04:57;;;;;;;9.67;8.17;;;;;;;;;;5070363;28;20467;-86
2021/10/19 13:07:34;;;;;;;;;;;;;;;;;;;;;
2021/10/19 13:10:03;;;;;;;9.33;8.30;;;;;;;;;;5068324;28;20449;-87
2021/10/19 13:12:31;;;;;;;14.67;9.20;;;;;;;;;;5075322;28;20477;-86
2021/10/19 13:15:04;;;;;;;9.87;7.57;;;;;;;;;;5077252;28;20533;-87
2021/10/19 13:17:33;;;;;;;9.73;7.90;;;;;;;;;;5063819;28;20441;-87
2021/10/19 13:20:02;;;;;;;9.60;8.60;;;;;;;;;;5062586;28;20473;-86
2021/10/19 13:22:32;;;;;;;11.67;9.67;;;;;;;;;;5064089;28;20450;-86
2021/10/19 13:25:02;;;;;;;14.73;10.33;;;;;;;;;;5064607;28;20466;-86
2021/10/19 13:27:30;;;;;;;10.60;9.03;;;16.10;99.90;;;;;;5068803;28;20952;-86
2021/10/19 13:30:11;;;;;;;11.33;8.37;;;16.00;99.90;;;;;;5072594;28;20430;-86
2021/10/19 13:32:44;;;;;;;10.00;8.90;;;;;;;;;;5074192;28;20458;-86
2021/10/19 13:35:18;;;;;;;9.60;8.60;;;;;;;;;;5074364;28;20505;-86
2021/10/19 13:38:06;;;;;;;13.47;9.90;;;;;;;;;;5072429;28;20442;-86
2021/10/19 13:40:33;;;;;;;14.53;7.47;;;;;;;;;;5073221;28;20469;-87
2021/10/19 13:43:02;;;;;;;11.80;7.13;;;;;;;;;;5072405;28;20441;-87
2021/10/19 13:45:29;;;;;;;12.67;7.60;;;;;;;;;;5073936;28;20481;-86
2021/10/19 13:47:59;;;;;;;14.03;8.37;;;;;;;;;;5073897;28;20446;-87
2021/10/19 13:50:30;;;;;;;7.47;6.77;;;;;;;;;;5072354;28;20445;-87
2021/10/19 13:52:59;;;;;;;11.23;8.17;;;;;;;;;;5072171;28;20571;-86